sensor_id;sensor_type;location;lat;lon;timestamp;P1;durP1;ratioP1;P2;durP2;ratioP2
19436;SDS011;9854;50.968;4.168;2023-08-30T00:00:46;6.25;;;4.55;;
19436;SDS011;9854;50.968;4.168;2023-08-30T00:03:12;5.30;;;4.65;;
19436;SDS011;9854;50.968;4.168;2023-08-30T00:05:39;4.35;;;3.95;;
19436;SDS011;9854;50.968;4.168;2023-08-30T00:08:05;5.20;;;4.70;;
19436;SDS011;9854;50.968;4.168;2023-08-30T00:10:31;6.85;;;4.47;;
19436;SDS011;9854;50.968;4.168;2023-08-30T00:12:56;6.22;;;4.32;;
19436;SDS011;9854;50.968;4.168;2023-08-30T00:15:22;5.22;;;4.72;;
19436;SDS011;9854;50.968;4.168;2023-08-30T00:17:48;6.55;;;4.78;;
19436;SDS011;9854;50.968;4.168;2023-08-30T00:20:13;6.65;;;4.53;;
19436;SDS011;9854;50.968;4.168;2023-08-30T00:22:39;7.07;;;4.90;;
19436;SDS011;9854;50.968;4.168;2023-08-30T00:25:04;5.53;;;4.15;;
19436;SDS011;9854;50.968;4.168;2023-08-30T00:27:30;10.70;;;4.88;;
19436;SDS011;9854;50.968;4.168;2023-08-30T00:29:56;5.95;;;4.57;;
19436;SDS011;9854;50.968;4.168;2023-08-30T00:32:21;7.18;;;4.40;;
19436;SDS011;9854;50.968;4.168;2023-08-30T00:34:50;5.50;;;4.30;;
19436;SDS011;9854;50.968;4.168;2023-08-30T00:37:16;6.57;;;4.53;;
19436;SDS011;9854;50.968;4.168;2023-08-30T00:39:42;10.40;;;5.28;;
19436;SDS011;9854;50.968;4.168;2023-08-30T00:42:08;9.57;;;5.65;;
19436;SDS011;9854;50.968;4.168;2023-08-30T00:44:34;6.60;;;5.63;;
19436;SDS011;9854;50.968;4.168;2023-08-30T00:47:00;5.75;;;4.95;;
19436;SDS011;9854;50.968;4.168;2023-08-30T00:49:28;6.50;;;4.50;;
19436;SDS011;9854;50.968;4.168;2023-08-30T00:51:58;5.90;;;4.63;;
19436;SDS011;9854;50.968;4.168;2023-08-30T00:54:31;7.43;;;4.80;;
19436;SDS011;9854;50.968;4.168;2023-08-30T00:56:57;5.15;;;4.65;;
19436;SDS011;9854;50.968;4.168;2023-08-30T00:59:23;5.85;;;5.03;;
19436;SDS011;9854;50.968;4.168;2023-08-30T01:01:49;6.50;;;4.97;;
19436;SDS011;9854;50.968;4.168;2023-08-30T01:04:16;7.70;;;4.90;;
19436;SDS011;9854;50.968;4.168;2023-08-30T01:06:43;9.02;;;5.40;;
19436;SDS011;9854;50.968;4.168;2023-08-30T01:09:08;10.68;;;4.97;;
19436;SDS011;9854;50.968;4.168;2023-08-30T01:14:29;8.25;;;5.55;;
19436;SDS011;9854;50.968;4.168;2023-08-30T01:17:03;8.93;;;5.55;;
19436;SDS011;9854;50.968;4.168;2023-08-30T01:22:15;14.43;;;5.80;;
19436;SDS011;9854;50.968;4.168;2023-08-30T01:27:34;6.10;;;5.57;;
19436;SDS011;9854;50.968;4.168;2023-08-30T01:30:02;6.40;;;5.78;;
19436;SDS011;9854;50.968;4.168;2023-08-30T01:32:31;10.23;;;5.93;;
19436;SDS011;9854;50.968;4.168;2023-08-30T01:34:59;6.82;;;6.22;;
19436;SDS011;9854;50.968;4.168;2023-08-30T01:37:26;7.70;;;6.05;;
19436;SDS011;9854;50.968;4.168;2023-08-30T01:39:52;10.80;;;6.82;;
19436;SDS011;9854;50.968;4.168;2023-08-30T01:42:21;7.63;;;6.65;;
19436;SDS011;9854;50.968;4.168;2023-08-30T01:44:52;7.20;;;6.60;;
19436;SDS011;9854;50.968;4.168;2023-08-30T01:47:22;7.57;;;6.03;;
19436;SDS011;9854;50.968;4.168;2023-08-30T01:49:51;12.80;;;6.82;;
19436;SDS011;9854;50.968;4.168;2023-08-30T01:52:18;8.93;;;7.05;;
19436;SDS011;9854;50.968;4.168;2023-08-30T01:54:44;9.55;;;6.68;;
19436;SDS011;9854;50.968;4.168;2023-08-30T01:57:11;12.38;;;6.70;;
19436;SDS011;9854;50.968;4.168;2023-08-30T01:59:37;8.45;;;6.85;;
19436;SDS011;9854;50.968;4.168;2023-08-30T02:02:03;10.80;;;7.38;;
19436;SDS011;9854;50.968;4.168;2023-08-30T02:04:29;11.38;;;7.57;;
19436;SDS011;9854;50.968;4.168;2023-08-30T02:09:40;10.35;;;7.03;;
19436;SDS011;9854;50.968;4.168;2023-08-30T02:12:14;9.40;;;7.38;;
19436;SDS011;9854;50.968;4.168;2023-08-30T02:14:43;8.98;;;7.40;;
19436;SDS011;9854;50.968;4.168;2023-08-30T02:17:13;13.57;;;7.57;;
19436;SDS011;9854;50.968;4.168;2023-08-30T02:19:40;7.40;;;6.80;;
19436;SDS011;9854;50.968;4.168;2023-08-30T02:22:07;11.20;;;7.00;;
19436;SDS011;9854;50.968;4.168;2023-08-30T02:24:33;8.20;;;6.50;;
19436;SDS011;9854;50.968;4.168;2023-08-30T02:26:59;8.50;;;6.68;;
19436;SDS011;9854;50.968;4.168;2023-08-30T02:29:24;10.02;;;6.50;;
19436;SDS011;9854;50.968;4.168;2023-08-30T02:31:50;9.05;;;7.00;;
19436;SDS011;9854;50.968;4.168;2023-08-30T02:34:16;8.65;;;6.72;;
19436;SDS011;9854;50.968;4.168;2023-08-30T02:36:41;10.02;;;6.82;;
19436;SDS011;9854;50.968;4.168;2023-08-30T02:39:07;9.25;;;6.35;;
19436;SDS011;9854;50.968;4.168;2023-08-30T02:41:33;9.98;;;5.80;;
19436;SDS011;9854;50.968;4.168;2023-08-30T02:43:59;7.45;;;6.10;;
19436;SDS011;9854;50.968;4.168;2023-08-30T02:46:25;7.10;;;6.40;;
19436;SDS011;9854;50.968;4.168;2023-08-30T02:48:50;10.43;;;6.07;;
19436;SDS011;9854;50.968;4.168;2023-08-30T02:51:16;7.25;;;6.22;;
19436;SDS011;9854;50.968;4.168;2023-08-30T02:53:42;7.97;;;6.00;;
19436;SDS011;9854;50.968;4.168;2023-08-30T02:56:08;7.07;;;6.38;;
19436;SDS011;9854;50.968;4.168;2023-08-30T02:58:33;7.47;;;5.70;;
19436;SDS011;9854;50.968;4.168;2023-08-30T03:00:59;8.60;;;6.25;;
19436;SDS011;9854;50.968;4.168;2023-08-30T03:03:26;6.10;;;5.47;;
19436;SDS011;9854;50.968;4.168;2023-08-30T03:05:51;6.72;;;5.63;;
19436;SDS011;9854;50.968;4.168;2023-08-30T03:08:17;9.55;;;6.03;;
19436;SDS011;9854;50.968;4.168;2023-08-30T03:10:43;6.50;;;5.90;;
19436;SDS011;9854;50.968;4.168;2023-08-30T03:13:08;7.10;;;6.38;;
19436;SDS011;9854;50.968;4.168;2023-08-30T03:15:34;6.63;;;5.93;;
19436;SDS011;9854;50.968;4.168;2023-08-30T03:18:00;9.05;;;6.72;;
19436;SDS011;9854;50.968;4.168;2023-08-30T03:20:26;8.82;;;5.97;;
19436;SDS011;9854;50.968;4.168;2023-08-30T03:22:55;8.30;;;6.00;;
19436;SDS011;9854;50.968;4.168;2023-08-30T03:25:21;8.43;;;6.07;;
19436;SDS011;9854;50.968;4.168;2023-08-30T03:27:47;7.80;;;5.90;;
19436;SDS011;9854;50.968;4.168;2023-08-30T03:30:13;9.35;;;6.50;;
19436;SDS011;9854;50.968;4.168;2023-08-30T03:32:38;10.48;;;6.93;;
19436;SDS011;9854;50.968;4.168;2023-08-30T03:35:05;9.35;;;6.65;;
19436;SDS011;9854;50.968;4.168;2023-08-30T03:37:30;10.43;;;6.43;;
19436;SDS011;9854;50.968;4.168;2023-08-30T03:39:56;15.07;;;6.72;;
19436;SDS011;9854;50.968;4.168;2023-08-30T03:42:22;12.70;;;6.50;;
19436;SDS011;9854;50.968;4.168;2023-08-30T03:44:47;7.47;;;6.68;;
19436;SDS011;9854;50.968;4.168;2023-08-30T03:47:13;11.07;;;6.88;;
19436;SDS011;9854;50.968;4.168;2023-08-30T03:49:39;16.98;;;8.13;;
19436;SDS011;9854;50.968;4.168;2023-08-30T03:52:04;7.07;;;6.38;;
19436;SDS011;9854;50.968;4.168;2023-08-30T03:54:31;9.77;;;7.78;;
19436;SDS011;9854;50.968;4.168;2023-08-30T03:56:56;17.63;;;7.38;;
19436;SDS011;9854;50.968;4.168;2023-08-30T03:59:22;10.45;;;7.93;;
19436;SDS011;9854;50.968;4.168;2023-08-30T04:01:50;11.38;;;6.90;;
19436;SDS011;9854;50.968;4.168;2023-08-30T04:04:16;10.52;;;7.30;;
19436;SDS011;9854;50.968;4.168;2023-08-30T04:06:41;10.60;;;7.72;;
19436;SDS011;9854;50.968;4.168;2023-08-30T04:09:07;12.43;;;7.80;;
19436;SDS011;9854;50.968;4.168;2023-08-30T04:11:33;9.90;;;8.38;;
19436;SDS011;9854;50.968;4.168;2023-08-30T04:13:58;9.63;;;7.82;;
19436;SDS011;9854;50.968;4.168;2023-08-30T04:16:24;10.43;;;8.55;;
19436;SDS011;9854;50.968;4.168;2023-08-30T04:18:50;8.75;;;7.95;;
19436;SDS011;9854;50.968;4.168;2023-08-30T04:21:15;11.63;;;8.00;;
19436;SDS011;9854;50.968;4.168;2023-08-30T04:23:41;14.75;;;8.68;;
19436;SDS011;9854;50.968;4.168;2023-08-30T04:26:06;10.77;;;8.32;;
19436;SDS011;9854;50.968;4.168;2023-08-30T04:28:32;9.60;;;7.85;;
19436;SDS011;9854;50.968;4.168;2023-08-30T04:30:58;8.82;;;7.60;;
19436;SDS011;9854;50.968;4.168;2023-08-30T04:33:23;14.15;;;7.93;;
19436;SDS011;9854;50.968;4.168;2023-08-30T04:35:53;10.35;;;7.63;;
19436;SDS011;9854;50.968;4.168;2023-08-30T04:38:20;10.25;;;8.43;;
19436;SDS011;9854;50.968;4.168;2023-08-30T04:40:46;17.27;;;9.52;;
19436;SDS011;9854;50.968;4.168;2023-08-30T04:43:13;11.90;;;9.55;;
19436;SDS011;9854;50.968;4.168;2023-08-30T04:45:39;12.13;;;9.40;;
19436;SDS011;9854;50.968;4.168;2023-08-30T04:48:05;10.88;;;9.80;;
19436;SDS011;9854;50.968;4.168;2023-08-30T04:50:31;12.77;;;10.27;;
19436;SDS011;9854;50.968;4.168;2023-08-30T04:52:57;12.95;;;10.55;;
19436;SDS011;9854;50.968;4.168;2023-08-30T04:55:28;14.18;;;11.13;;
19436;SDS011;9854;50.968;4.168;2023-08-30T04:57:54;14.27;;;10.70;;
19436;SDS011;9854;50.968;4.168;2023-08-30T05:00:20;13.38;;;10.73;;
19436;SDS011;9854;50.968;4.168;2023-08-30T05:02:46;19.35;;;12.60;;
19436;SDS011;9854;50.968;4.168;2023-08-30T05:05:12;15.43;;;11.68;;
19436;SDS011;9854;50.968;4.168;2023-08-30T05:07:38;14.43;;;11.40;;
19436;SDS011;9854;50.968;4.168;2023-08-30T05:10:04;15.18;;;12.00;;
19436;SDS011;9854;50.968;4.168;2023-08-30T05:12:31;18.63;;;12.75;;
19436;SDS011;9854;50.968;4.168;2023-08-30T05:14:58;15.20;;;13.13;;
19436;SDS011;9854;50.968;4.168;2023-08-30T05:17:24;16.00;;;12.38;;
19436;SDS011;9854;50.968;4.168;2023-08-30T05:19:53;14.57;;;12.52;;
19436;SDS011;9854;50.968;4.168;2023-08-30T05:22:18;17.05;;;13.15;;
19436;SDS011;9854;50.968;4.168;2023-08-30T05:24:44;19.88;;;13.15;;
19436;SDS011;9854;50.968;4.168;2023-08-30T05:27:10;18.38;;;12.80;;
19436;SDS011;9854;50.968;4.168;2023-08-30T05:29:36;13.50;;;12.20;;
19436;SDS011;9854;50.968;4.168;2023-08-30T05:32:02;13.30;;;11.88;;
19436;SDS011;9854;50.968;4.168;2023-08-30T05:34:28;14.73;;;12.52;;
19436;SDS011;9854;50.968;4.168;2023-08-30T05:36:54;15.50;;;12.10;;
19436;SDS011;9854;50.968;4.168;2023-08-30T05:39:19;15.88;;;11.93;;
19436;SDS011;9854;50.968;4.168;2023-08-30T05:41:45;13.98;;;10.60;;
19436;SDS011;9854;50.968;4.168;2023-08-30T05:44:10;11.80;;;10.57;;
19436;SDS011;9854;50.968;4.168;2023-08-30T05:46:36;11.77;;;10.23;;
19436;SDS011;9854;50.968;4.168;2023-08-30T05:49:02;12.48;;;10.57;;
19436;SDS011;9854;50.968;4.168;2023-08-30T05:51:28;13.13;;;11.45;;
19436;SDS011;9854;50.968;4.168;2023-08-30T05:53:54;15.77;;;10.50;;
19436;SDS011;9854;50.968;4.168;2023-08-30T05:56:19;11.52;;;10.40;;
19436;SDS011;9854;50.968;4.168;2023-08-30T05:58:45;14.93;;;11.82;;
19436;SDS011;9854;50.968;4.168;2023-08-30T06:01:11;15.85;;;11.52;;
19436;SDS011;9854;50.968;4.168;2023-08-30T06:03:36;12.50;;;11.30;;
19436;SDS011;9854;50.968;4.168;2023-08-30T06:06:02;13.50;;;10.88;;
19436;SDS011;9854;50.968;4.168;2023-08-30T06:08:28;13.57;;;11.88;;
19436;SDS011;9854;50.968;4.168;2023-08-30T06:10:54;14.13;;;10.52;;
19436;SDS011;9854;50.968;4.168;2023-08-30T06:13:19;13.48;;;11.07;;
19436;SDS011;9854;50.968;4.168;2023-08-30T06:15:49;17.55;;;11.60;;
19436;SDS011;9854;50.968;4.168;2023-08-30T06:18:15;16.13;;;11.93;;
19436;SDS011;9854;50.968;4.168;2023-08-30T06:20:41;15.98;;;12.05;;
19436;SDS011;9854;50.968;4.168;2023-08-30T06:23:06;18.73;;;11.63;;
19436;SDS011;9854;50.968;4.168;2023-08-30T06:25:32;21.70;;;12.90;;
19436;SDS011;9854;50.968;4.168;2023-08-30T06:27:58;19.00;;;11.88;;
19436;SDS011;9854;50.968;4.168;2023-08-30T06:30:26;22.63;;;11.65;;
19436;SDS011;9854;50.968;4.168;2023-08-30T06:32:52;17.08;;;11.68;;
19436;SDS011;9854;50.968;4.168;2023-08-30T06:35:17;21.65;;;11.55;;
19436;SDS011;9854;50.968;4.168;2023-08-30T06:37:43;16.65;;;11.25;;
19436;SDS011;9854;50.968;4.168;2023-08-30T06:40:09;20.48;;;12.35;;
19436;SDS011;9854;50.968;4.168;2023-08-30T06:42:35;18.35;;;10.93;;
19436;SDS011;9854;50.968;4.168;2023-08-30T06:45:01;14.45;;;10.35;;
19436;SDS011;9854;50.968;4.168;2023-08-30T06:47:27;17.23;;;11.25;;
19436;SDS011;9854;50.968;4.168;2023-08-30T06:49:53;12.05;;;9.77;;
19436;SDS011;9854;50.968;4.168;2023-08-30T06:52:19;19.05;;;9.75;;
19436;SDS011;9854;50.968;4.168;2023-08-30T06:54:44;13.55;;;9.55;;
19436;SDS011;9854;50.968;4.168;2023-08-30T06:57:10;13.45;;;9.32;;
19436;SDS011;9854;50.968;4.168;2023-08-30T06:59:35;9.50;;;8.32;;
19436;SDS011;9854;50.968;4.168;2023-08-30T07:02:02;12.05;;;9.40;;
19436;SDS011;9854;50.968;4.168;2023-08-30T07:04:28;12.00;;;9.05;;
19436;SDS011;9854;50.968;4.168;2023-08-30T07:06:54;12.55;;;9.35;;
19436;SDS011;9854;50.968;4.168;2023-08-30T07:09:19;10.50;;;8.90;;
19436;SDS011;9854;50.968;4.168;2023-08-30T07:11:45;11.48;;;8.90;;
19436;SDS011;9854;50.968;4.168;2023-08-30T07:14:11;9.32;;;8.25;;
19436;SDS011;9854;50.968;4.168;2023-08-30T07:16:37;10.40;;;9.20;;
19436;SDS011;9854;50.968;4.168;2023-08-30T07:19:03;9.73;;;8.68;;
19436;SDS011;9854;50.968;4.168;2023-08-30T07:21:29;8.90;;;8.00;;
19436;SDS011;9854;50.968;4.168;2023-08-30T07:23:54;9.02;;;7.88;;
19436;SDS011;9854;50.968;4.168;2023-08-30T07:26:20;9.90;;;8.05;;
19436;SDS011;9854;50.968;4.168;2023-08-30T07:28:46;12.40;;;7.85;;
19436;SDS011;9854;50.968;4.168;2023-08-30T07:31:11;8.25;;;7.60;;
19436;SDS011;9854;50.968;4.168;2023-08-30T07:33:43;8.05;;;7.25;;
19436;SDS011;9854;50.968;4.168;2023-08-30T07:36:11;8.18;;;6.63;;
19436;SDS011;9854;50.968;4.168;2023-08-30T07:38:37;6.18;;;5.70;;
19436;SDS011;9854;50.968;4.168;2023-08-30T07:41:03;6.90;;;6.20;;
19436;SDS011;9854;50.968;4.168;2023-08-30T07:43:29;6.22;;;5.63;;
19436;SDS011;9854;50.968;4.168;2023-08-30T07:45:54;6.28;;;5.75;;
19436;SDS011;9854;50.968;4.168;2023-08-30T07:48:21;7.75;;;5.60;;
19436;SDS011;9854;50.968;4.168;2023-08-30T07:50:47;6.28;;;5.63;;
19436;SDS011;9854;50.968;4.168;2023-08-30T07:53:12;6.20;;;5.70;;
19436;SDS011;9854;50.968;4.168;2023-08-30T07:55:38;6.60;;;6.00;;
19436;SDS011;9854;50.968;4.168;2023-08-30T07:58:04;7.20;;;6.00;;
19436;SDS011;9854;50.968;4.168;2023-08-30T08:00:29;7.25;;;6.40;;
19436;SDS011;9854;50.968;4.168;2023-08-30T08:02:55;7.47;;;6.45;;
19436;SDS011;9854;50.968;4.168;2023-08-30T08:05:20;9.82;;;6.00;;
19436;SDS011;9854;50.968;4.168;2023-08-30T08:07:52;6.53;;;5.93;;
19436;SDS011;9854;50.968;4.168;2023-08-30T08:10:18;7.43;;;6.72;;
19436;SDS011;9854;50.968;4.168;2023-08-30T08:12:44;6.35;;;5.75;;
19436;SDS011;9854;50.968;4.168;2023-08-30T08:15:10;8.02;;;6.25;;
19436;SDS011;9854;50.968;4.168;2023-08-30T08:17:35;5.82;;;5.32;;
19436;SDS011;9854;50.968;4.168;2023-08-30T08:20:01;6.05;;;5.55;;
19436;SDS011;9854;50.968;4.168;2023-08-30T08:22:29;6.25;;;5.65;;
19436;SDS011;9854;50.968;4.168;2023-08-30T08:24:55;6.13;;;5.53;;
19436;SDS011;9854;50.968;4.168;2023-08-30T08:27:22;6.88;;;6.28;;
19436;SDS011;9854;50.968;4.168;2023-08-30T08:29:49;6.60;;;5.93;;
19436;SDS011;9854;50.968;4.168;2023-08-30T08:32:15;7.15;;;5.45;;
19436;SDS011;9854;50.968;4.168;2023-08-30T08:34:40;7.88;;;5.65;;
19436;SDS011;9854;50.968;4.168;2023-08-30T08:37:06;7.15;;;5.63;;
19436;SDS011;9854;50.968;4.168;2023-08-30T08:39:32;6.00;;;5.30;;
19436;SDS011;9854;50.968;4.168;2023-08-30T08:41:59;6.70;;;6.20;;
19436;SDS011;9854;50.968;4.168;2023-08-30T08:44:25;6.75;;;6.05;;
19436;SDS011;9854;50.968;4.168;2023-08-30T08:46:53;8.00;;;6.57;;
19436;SDS011;9854;50.968;4.168;2023-08-30T08:49:19;7.18;;;6.38;;
19436;SDS011;9854;50.968;4.168;2023-08-30T08:51:45;7.32;;;6.63;;
19436;SDS011;9854;50.968;4.168;2023-08-30T08:54:11;8.20;;;5.47;;
19436;SDS011;9854;50.968;4.168;2023-08-30T08:56:37;6.93;;;6.22;;
19436;SDS011;9854;50.968;4.168;2023-08-30T08:59:05;7.25;;;6.53;;
19436;SDS011;9854;50.968;4.168;2023-08-30T09:01:33;6.53;;;5.75;;
19436;SDS011;9854;50.968;4.168;2023-08-30T09:04:01;7.85;;;6.85;;
19436;SDS011;9854;50.968;4.168;2023-08-30T09:06:30;6.30;;;5.80;;
19436;SDS011;9854;50.968;4.168;2023-08-30T09:08:56;5.45;;;5.00;;
19436;SDS011;9854;50.968;4.168;2023-08-30T09:11:21;5.75;;;5.20;;
19436;SDS011;9854;50.968;4.168;2023-08-30T09:13:47;5.95;;;4.85;;
19436;SDS011;9854;50.968;4.168;2023-08-30T09:16:19;6.07;;;5.45;;
19436;SDS011;9854;50.968;4.168;2023-08-30T09:18:56;6.00;;;5.00;;
19436;SDS011;9854;50.968;4.168;2023-08-30T09:21:30;5.75;;;5.25;;
19436;SDS011;9854;50.968;4.168;2023-08-30T09:26:29;6.88;;;5.78;;
19436;SDS011;9854;50.968;4.168;2023-08-30T09:29:06;5.90;;;5.40;;
19436;SDS011;9854;50.968;4.168;2023-08-30T09:34:03;6.85;;;5.90;;
19436;SDS011;9854;50.968;4.168;2023-08-30T09:36:32;5.78;;;5.07;;
19436;SDS011;9854;50.968;4.168;2023-08-30T09:39:12;5.45;;;4.95;;
19436;SDS011;9854;50.968;4.168;2023-08-30T09:41:46;5.47;;;4.93;;
19436;SDS011;9854;50.968;4.168;2023-08-30T09:44:16;6.15;;;5.05;;
19436;SDS011;9854;50.968;4.168;2023-08-30T09:46:47;5.28;;;4.50;;
19436;SDS011;9854;50.968;4.168;2023-08-30T09:49:15;5.63;;;4.45;;
19436;SDS011;9854;50.968;4.168;2023-08-30T09:51:45;7.47;;;5.30;;
19436;SDS011;9854;50.968;4.168;2023-08-30T09:56:41;5.95;;;4.25;;
19436;SDS011;9854;50.968;4.168;2023-08-30T09:59:11;7.32;;;4.95;;
19436;SDS011;9854;50.968;4.168;2023-08-30T10:01:41;9.98;;;4.63;;
19436;SDS011;9854;50.968;4.168;2023-08-30T10:04:08;4.60;;;4.07;;
19436;SDS011;9854;50.968;4.168;2023-08-30T10:06:35;5.93;;;4.20;;
19436;SDS011;9854;50.968;4.168;2023-08-30T10:09:02;6.93;;;4.25;;
19436;SDS011;9854;50.968;4.168;2023-08-30T10:11:29;6.45;;;3.30;;
19436;SDS011;9854;50.968;4.168;2023-08-30T10:14:02;7.07;;;3.75;;
19436;SDS011;9854;50.968;4.168;2023-08-30T10:16:30;11.43;;;4.22;;
19436;SDS011;9854;50.968;4.168;2023-08-30T10:19:17;6.97;;;3.75;;
19436;SDS011;9854;50.968;4.168;2023-08-30T10:21:47;10.95;;;4.07;;
19436;SDS011;9854;50.968;4.168;2023-08-30T10:24:14;5.35;;;3.03;;
19436;SDS011;9854;50.968;4.168;2023-08-30T10:26:44;9.18;;;3.03;;
19436;SDS011;9854;50.968;4.168;2023-08-30T10:29:12;7.70;;;3.25;;
19436;SDS011;9854;50.968;4.168;2023-08-30T10:31:39;8.77;;;2.88;;
19436;SDS011;9854;50.968;4.168;2023-08-30T10:34:13;10.25;;;2.92;;
19436;SDS011;9854;50.968;4.168;2023-08-30T10:36:41;4.47;;;2.13;;
19436;SDS011;9854;50.968;4.168;2023-08-30T10:39:14;3.58;;;1.83;;
19436;SDS011;9854;50.968;4.168;2023-08-30T10:41:56;5.90;;;2.80;;
19436;SDS011;9854;50.968;4.168;2023-08-30T10:44:22;6.65;;;2.28;;
19436;SDS011;9854;50.968;4.168;2023-08-30T10:46:52;6.18;;;2.25;;
19436;SDS011;9854;50.968;4.168;2023-08-30T10:49:18;6.88;;;2.38;;
19436;SDS011;9854;50.968;4.168;2023-08-30T10:51:44;8.18;;;2.00;;
19436;SDS011;9854;50.968;4.168;2023-08-30T10:56:44;7.07;;;2.38;;
19436;SDS011;9854;50.968;4.168;2023-08-30T10:59:19;6.88;;;2.60;;
19436;SDS011;9854;50.968;4.168;2023-08-30T11:01:46;4.60;;;2.00;;
19436;SDS011;9854;50.968;4.168;2023-08-30T11:04:14;7.68;;;2.33;;
19436;SDS011;9854;50.968;4.168;2023-08-30T11:06:44;5.13;;;2.40;;
19436;SDS011;9854;50.968;4.168;2023-08-30T11:09:14;6.68;;;2.38;;
19436;SDS011;9854;50.968;4.168;2023-08-30T11:11:43;7.03;;;2.30;;
19436;SDS011;9854;50.968;4.168;2023-08-30T11:14:09;7.22;;;2.20;;
19436;SDS011;9854;50.968;4.168;2023-08-30T11:16:35;7.07;;;2.38;;
19436;SDS011;9854;50.968;4.168;2023-08-30T11:19:02;6.68;;;2.17;;
19436;SDS011;9854;50.968;4.168;2023-08-30T11:21:32;6.40;;;2.20;;
19436;SDS011;9854;50.968;4.168;2023-08-30T11:24:05;4.30;;;1.63;;
19436;SDS011;9854;50.968;4.168;2023-08-30T11:26:31;8.68;;;1.90;;
19436;SDS011;9854;50.968;4.168;2023-08-30T11:28:57;6.88;;;2.25;;
19436;SDS011;9854;50.968;4.168;2023-08-30T11:31:28;6.50;;;2.30;;
19436;SDS011;9854;50.968;4.168;2023-08-30T11:33:57;8.20;;;2.17;;
19436;SDS011;9854;50.968;4.168;2023-08-30T11:36:25;6.47;;;2.33;;
19436;SDS011;9854;50.968;4.168;2023-08-30T11:38:53;8.82;;;2.30;;
19436;SDS011;9854;50.968;4.168;2023-08-30T11:41:22;6.85;;;2.50;;
19436;SDS011;9854;50.968;4.168;2023-08-30T11:43:48;8.68;;;2.75;;
19436;SDS011;9854;50.968;4.168;2023-08-30T11:46:14;5.47;;;2.00;;
19436;SDS011;9854;50.968;4.168;2023-08-30T11:48:41;7.55;;;2.25;;
19436;SDS011;9854;50.968;4.168;2023-08-30T11:51:07;9.30;;;2.40;;
19436;SDS011;9854;50.968;4.168;2023-08-30T11:53:34;6.43;;;2.00;;
19436;SDS011;9854;50.968;4.168;2023-08-30T11:56:00;9.15;;;2.30;;
19436;SDS011;9854;50.968;4.168;2023-08-30T11:58:26;10.45;;;2.33;;
19436;SDS011;9854;50.968;4.168;2023-08-30T12:00:53;9.60;;;2.50;;
19436;SDS011;9854;50.968;4.168;2023-08-30T12:03:22;8.15;;;2.15;;
19436;SDS011;9854;50.968;4.168;2023-08-30T12:05:48;7.07;;;2.45;;
19436;SDS011;9854;50.968;4.168;2023-08-30T12:08:22;6.28;;;2.20;;
19436;SDS011;9854;50.968;4.168;2023-08-30T12:10:49;9.45;;;2.35;;
19436;SDS011;9854;50.968;4.168;2023-08-30T12:13:32;7.07;;;2.42;;
19436;SDS011;9854;50.968;4.168;2023-08-30T12:15:59;6.05;;;2.25;;
19436;SDS011;9854;50.968;4.168;2023-08-30T12:18:26;8.60;;;2.35;;
19436;SDS011;9854;50.968;4.168;2023-08-30T12:23:23;11.82;;;2.20;;
19436;SDS011;9854;50.968;4.168;2023-08-30T12:26:02;5.13;;;2.05;;
19436;SDS011;9854;50.968;4.168;2023-08-30T12:28:33;4.65;;;1.60;;
19436;SDS011;9854;50.968;4.168;2023-08-30T12:31:00;9.77;;;2.05;;
19436;SDS011;9854;50.968;4.168;2023-08-30T12:33:26;8.15;;;2.15;;
19436;SDS011;9854;50.968;4.168;2023-08-30T12:35:53;9.75;;;2.20;;
19436;SDS011;9854;50.968;4.168;2023-08-30T12:38:18;6.88;;;2.03;;
19436;SDS011;9854;50.968;4.168;2023-08-30T12:40:45;7.53;;;1.98;;
19436;SDS011;9854;50.968;4.168;2023-08-30T12:43:12;8.45;;;1.73;;
19436;SDS011;9854;50.968;4.168;2023-08-30T12:45:41;7.03;;;1.65;;
19436;SDS011;9854;50.968;4.168;2023-08-30T12:48:08;7.93;;;1.90;;
19436;SDS011;9854;50.968;4.168;2023-08-30T12:50:35;12.35;;;1.60;;
19436;SDS011;9854;50.968;4.168;2023-08-30T12:53:01;6.82;;;1.85;;
19436;SDS011;9854;50.968;4.168;2023-08-30T12:55:28;5.53;;;1.48;;
19436;SDS011;9854;50.968;4.168;2023-08-30T12:57:54;7.03;;;1.92;;
19436;SDS011;9854;50.968;4.168;2023-08-30T13:00:19;6.43;;;1.75;;
19436;SDS011;9854;50.968;4.168;2023-08-30T13:02:45;7.60;;;1.80;;
19436;SDS011;9854;50.968;4.168;2023-08-30T13:05:11;5.75;;;1.70;;
19436;SDS011;9854;50.968;4.168;2023-08-30T13:07:36;4.43;;;1.52;;
19436;SDS011;9854;50.968;4.168;2023-08-30T13:10:02;3.53;;;1.20;;
19436;SDS011;9854;50.968;4.168;2023-08-30T13:12:28;5.45;;;1.60;;
19436;SDS011;9854;50.968;4.168;2023-08-30T13:14:54;4.78;;;1.40;;
19436;SDS011;9854;50.968;4.168;2023-08-30T13:17:20;4.97;;;1.70;;
19436;SDS011;9854;50.968;4.168;2023-08-30T13:19:45;6.38;;;1.20;;
19436;SDS011;9854;50.968;4.168;2023-08-30T13:22:11;4.85;;;1.58;;
19436;SDS011;9854;50.968;4.168;2023-08-30T13:24:36;3.20;;;1.63;;
19436;SDS011;9854;50.968;4.168;2023-08-30T13:27:02;8.60;;;1.50;;
19436;SDS011;9854;50.968;4.168;2023-08-30T13:29:29;5.10;;;1.40;;
19436;SDS011;9854;50.968;4.168;2023-08-30T13:31:54;6.40;;;1.60;;
19436;SDS011;9854;50.968;4.168;2023-08-30T13:34:20;5.38;;;1.83;;
19436;SDS011;9854;50.968;4.168;2023-08-30T13:36:46;8.88;;;1.70;;
19436;SDS011;9854;50.968;4.168;2023-08-30T13:39:11;5.32;;;1.40;;
19436;SDS011;9854;50.968;4.168;2023-08-30T13:41:37;7.03;;;1.55;;
19436;SDS011;9854;50.968;4.168;2023-08-30T13:44:03;5.45;;;1.30;;
19436;SDS011;9854;50.968;4.168;2023-08-30T13:46:29;11.23;;;1.67;;
19436;SDS011;9854;50.968;4.168;2023-08-30T13:48:55;4.75;;;1.55;;
19436;SDS011;9854;50.968;4.168;2023-08-30T13:51:24;4.00;;;1.20;;
19436;SDS011;9854;50.968;4.168;2023-08-30T13:53:51;6.25;;;1.60;;
19436;SDS011;9854;50.968;4.168;2023-08-30T13:56:17;6.25;;;1.40;;
19436;SDS011;9854;50.968;4.168;2023-08-30T13:58:44;5.25;;;1.50;;
19436;SDS011;9854;50.968;4.168;2023-08-30T14:01:10;6.78;;;1.13;;
19436;SDS011;9854;50.968;4.168;2023-08-30T14:03:35;6.53;;;1.50;;
19436;SDS011;9854;50.968;4.168;2023-08-30T14:06:01;3.55;;;1.50;;
19436;SDS011;9854;50.968;4.168;2023-08-30T14:08:27;8.23;;;1.70;;
19436;SDS011;9854;50.968;4.168;2023-08-30T14:10:52;4.97;;;1.30;;
19436;SDS011;9854;50.968;4.168;2023-08-30T14:13:19;3.13;;;1.30;;
19436;SDS011;9854;50.968;4.168;2023-08-30T14:15:44;3.55;;;0.95;;
19436;SDS011;9854;50.968;4.168;2023-08-30T14:18:10;6.03;;;1.25;;
19436;SDS011;9854;50.968;4.168;2023-08-30T14:20:36;8.60;;;1.33;;
19436;SDS011;9854;50.968;4.168;2023-08-30T14:23:02;5.85;;;1.25;;
19436;SDS011;9854;50.968;4.168;2023-08-30T14:25:28;6.30;;;1.52;;
19436;SDS011;9854;50.968;4.168;2023-08-30T14:27:54;8.13;;;1.45;;
19436;SDS011;9854;50.968;4.168;2023-08-30T14:30:20;3.05;;;1.10;;
19436;SDS011;9854;50.968;4.168;2023-08-30T14:32:46;3.60;;;1.00;;
19436;SDS011;9854;50.968;4.168;2023-08-30T14:35:11;7.82;;;1.30;;
19436;SDS011;9854;50.968;4.168;2023-08-30T14:37:37;7.53;;;1.23;;
19436;SDS011;9854;50.968;4.168;2023-08-30T14:40:04;3.03;;;1.02;;
19436;SDS011;9854;50.968;4.168;2023-08-30T14:42:31;4.82;;;1.15;;
19436;SDS011;9854;50.968;4.168;2023-08-30T14:44:57;5.93;;;1.00;;
19436;SDS011;9854;50.968;4.168;2023-08-30T14:47:23;3.45;;;1.10;;
19436;SDS011;9854;50.968;4.168;2023-08-30T14:49:49;4.47;;;1.30;;
19436;SDS011;9854;50.968;4.168;2023-08-30T14:52:15;5.93;;;1.33;;
19436;SDS011;9854;50.968;4.168;2023-08-30T14:54:41;6.18;;;1.20;;
19436;SDS011;9854;50.968;4.168;2023-08-30T14:57:07;4.70;;;1.83;;
19436;SDS011;9854;50.968;4.168;2023-08-30T14:59:33;4.03;;;1.10;;
19436;SDS011;9854;50.968;4.168;2023-08-30T15:01:59;6.68;;;1.35;;
19436;SDS011;9854;50.968;4.168;2023-08-30T15:04:25;4.30;;;1.38;;
19436;SDS011;9854;50.968;4.168;2023-08-30T15:06:51;4.35;;;1.25;;
19436;SDS011;9854;50.968;4.168;2023-08-30T15:09:17;3.13;;;0.90;;
19436;SDS011;9854;50.968;4.168;2023-08-30T15:11:43;4.00;;;1.23;;
19436;SDS011;9854;50.968;4.168;2023-08-30T15:14:09;9.55;;;1.30;;
19436;SDS011;9854;50.968;4.168;2023-08-30T15:16:35;3.63;;;1.20;;